Time;durP1;ratioP1;P1;durP2;ratioP2;P2;SDS_P1;SDS_P2;PMS_P1;PMS_P2;Temp;Humidity;BMP_temperature;BMP_pressure;BME280_temperature;BME280_humidity;BME280_pressure;Samples;Min_cycle;Max_cycle;Signal;HPM_P1;HPM_P2
2023/05/13 00:00:07;;;;;;;6.93;4.80;;;14.30;99.90;;;;;;4171409;28;20222;-77
2023/05/13 00:02:09;;;;;;;6.67;4.87;;;14.20;99.90;;;;;;4173661;28;20215;-77
2023/05/13 00:04:11;;;;;;;7.40;5.30;;;14.20;99.90;;;;;;4170623;28;20574;-77
2023/05/13 00:06:14;;;;;;;8.17;5.17;;;14.20;99.90;;;;;;4171573;28;20232;-77
2023/05/13 00:08:16;;;;;;;10.27;5.17;;;14.20;99.90;;;;;;4167525;28;20291;-77
2023/05/13 00:10:19;;;;;;;8.07;5.00;;;14.10;99.90;;;;;;4170846;28;20208;-77
2023/05/13 00:12:21;;;;;;;8.43;5.77;;;14.10;99.90;;;;;;4171235;28;20202;-77
2023/05/13 00:14:23;;;;;;;8.57;5.57;;;14.00;99.90;;;;;;4169327;28;20294;-77
2023/05/13 00:16:26;;;;;;;11.50;5.90;;;14.00;99.90;;;;;;4169901;28;20642;-77
2023/05/13 00:18:30;;;;;;;7.70;5.40;;;14.00;99.90;;;;;;4170077;28;20665;-77
2023/05/13 00:20:32;;;;;;;8.27;5.30;;;13.90;99.90;;;;;;4169728;28;20565;-77
2023/05/13 00:22:35;;;;;;;6.33;4.77;;;13.90;99.90;;;;;;4175360;28;20202;-77
2023/05/13 00:24:37;;;;;;;7.53;5.20;;;13.80;99.90;;;;;;4173552;28;20621;-78
2023/05/13 00:26:39;;;;;;;8.10;5.37;;;13.80;99.90;;;;;;4170227;28;20239;-77
2023/05/13 00:28:41;;;;;;;8.37;5.50;;;13.70;99.90;;;;;;4172487;28;20269;-76
2023/05/13 00:30:44;;;;;;;9.07;5.70;;;13.70;99.90;;;;;;4168688;28;20211;-77
2023/05/13 00:32:46;;;;;;;7.63;5.27;;;13.60;99.90;;;;;;4179413;28;20213;-78
2023/05/13 00:34:48;;;;;;;8.67;6.00;;;13.60;99.90;;;;;;4184915;28;20724;-77
2023/05/13 00:36:50;;;;;;;8.17;5.87;;;13.60;99.90;;;;;;4188114;28;20310;-77
2023/05/13 00:38:53;;;;;;;9.23;5.90;;;13.50;99.90;;;;;;4195011;28;20245;-77
2023/05/13 00:40:55;;;;;;;7.87;5.50;;;13.50;99.90;;;;;;4190764;28;20303;-77
2023/05/13 00:42:57;;;;;;;8.17;5.50;;;13.40;99.90;;;;;;4187876;28;20211;-77
2023/05/13 00:44:59;;;;;;;7.33;5.73;;;13.40;99.90;;;;;;4193042;28;20776;-76
2023/05/13 00:47:01;;;;;;;8.07;5.13;;;13.40;99.90;;;;;;4187524;28;20226;-77
2023/05/13 00:49:04;;;;;;;9.93;5.57;;;13.30;99.90;;;;;;4187854;28;20225;-77
2023/05/13 00:51:06;;;;;;;8.53;5.77;;;13.30;99.90;;;;;;4189604;28;20195;-77
2023/05/13 00:53:08;;;;;;;6.57;5.03;;;13.30;99.90;;;;;;4179159;28;20215;-77
2023/05/13 00:55:12;;;;;;;8.90;5.93;;;13.20;99.90;;;;;;4181884;28;20724;-77
2023/05/13 00:57:14;;;;;;;7.87;5.67;;;13.20;99.90;;;;;;4173129;28;20258;-77
2023/05/13 00:59:16;;;;;;;8.60;5.70;;;13.20;99.90;;;;;;4170559;28;20223;-78
2023/05/13 01:01:26;;;;;;;6.17;4.80;;;13.10;99.90;;;;;;4174810;28;20259;-77
2023/05/13 01:03:35;;;;;;;6.80;5.20;;;13.10;99.90;;;;;;4177689;28;20249;-77
2023/05/13 01:05:43;;;;;;;8.67;5.13;;;13.10;99.90;;;;;;4178908;28;20242;-77
2023/05/13 01:07:53;;;;;;;7.37;5.10;;;13.00;99.90;;;;;;4174361;28;20890;-78
2023/05/13 01:10:10;;;;;;;7.33;4.90;;;13.00;99.90;;;;;;4172623;28;20301;-78
2023/05/13 01:12:19;;;;;;;5.70;4.83;;;13.00;99.90;;;;;;4171748;28;20228;-78
2023/05/13 01:14:25;;;;;;;7.53;4.97;;;13.00;99.90;;;;;;4174635;28;20283;-77
2023/05/13 01:16:32;;;;;;;9.17;5.20;;;12.90;99.90;;;;;;4173667;28;20226;-77
2023/05/13 01:18:38;;;;;;;5.80;4.60;;;12.90;99.90;;;;;;4172764;28;20214;-77
2023/05/13 01:20:42;;;;;;;8.47;5.17;;;12.90;99.90;;;;;;4172746;28;20568;-77
2023/05/13 01:22:46;;;;;;;6.97;4.70;;;12.90;99.90;;;;;;4172109;28;20211;-77
2023/05/13 01:24:49;;;;;;;7.40;5.07;;;12.80;99.90;;;;;;4172160;28;20634;-78
2023/05/13 01:26:51;;;;;;;6.80;4.73;;;12.80;99.90;;;;;;4173442;28;20233;-77
2023/05/13 01:28:53;;;;;;;7.13;4.60;;;12.80;99.90;;;;;;4172890;28;20210;-77
2023/05/13 01:30:56;;;;;;;7.17;4.87;;;12.80;99.90;;;;;;4174752;28;20637;-77
2023/05/13 01:32:59;;;;;;;7.97;4.60;;;12.80;99.90;;;;;;4172050;28;20683;-77
2023/05/13 01:35:01;;;;;;;6.97;4.63;;;12.70;99.90;;;;;;4174965;28;20942;-77
2023/05/13 01:37:03;;;;;;;6.13;4.53;;;12.80;99.90;;;;;;4172902;28;20669;-77
2023/05/13 01:39:08;;;;;;;6.80;4.70;;;12.70;99.90;;;;;;4175698;28;20298;-77
2023/05/13 01:41:10;;;;;;;7.00;5.07;;;12.80;99.90;;;;;;4174899;28;20317;-77
2023/05/13 01:43:12;;;;;;;8.37;5.00;;;12.80;99.90;;;;;;4181971;28;20556;-77
2023/05/13 01:45:14;;;;;;;7.80;4.70;;;12.80;99.90;;;;;;4183223;28;20229;-77
2023/05/13 01:47:16;;;;;;;5.93;4.50;;;12.80;99.90;;;;;;4181842;28;20227;-77
2023/05/13 01:49:24;;;;;;;5.67;4.17;;;12.80;99.90;;;;;;4176956;28;20676;-77
2023/05/13 01:51:29;;;;;;;7.20;5.23;;;12.80;99.90;;;;;;4176737;28;20306;-77
2023/05/13 01:53:31;;;;;;;6.50;4.90;;;12.80;99.90;;;;;;4176900;28;20253;-77
2023/05/13 01:55:34;;;;;;;7.77;5.30;;;12.80;99.90;;;;;;4170630;28;20686;-77
2023/05/13 01:57:36;;;;;;;7.50;4.97;;;12.80;99.90;;;;;;4175729;28;20249;-77
2023/05/13 01:59:38;;;;;;;8.60;5.10;;;12.80;99.90;;;;;;4177297;28;20308;-77
2023/05/13 02:01:43;;;;;;;7.43;4.90;;;12.80;99.90;;;;;;4175585;28;20318;-77
2023/05/13 02:03:45;;;;;;;9.23;5.30;;;12.80;99.90;;;;;;4175338;28;20289;-78
2023/05/13 02:05:47;;;;;;;7.33;4.70;;;12.80;99.90;;;;;;4177983;28;20658;-78
2023/05/13 02:07:50;;;;;;;7.90;5.20;;;12.80;99.90;;;;;;4179649;28;20214;-78
2023/05/13 02:09:54;;;;;;;6.10;4.80;;;12.70;99.90;;;;;;4172878;28;20310;-78
2023/05/13 02:11:57;;;;;;;6.03;4.90;;;12.70;99.90;;;;;;4177206;28;20309;-78
2023/05/13 02:13:59;;;;;;;7.20;5.23;;;12.70;99.90;;;;;;4179079;28;20618;-78
2023/05/13 02:16:01;;;;;;;6.47;5.10;;;12.70;99.90;;;;;;4190313;28;20329;-77
2023/05/13 02:18:03;;;;;;;8.43;5.47;;;12.70;99.90;;;;;;4173236;28;20636;-77
2023/05/13 02:20:06;;;;;;;7.73;4.93;;;12.60;99.90;;;;;;4179943;28;20238;-78
2023/05/13 02:22:08;;;;;;;8.43;5.77;;;12.60;99.90;;;;;;4174327;28;20264;-77
2023/05/13 02:24:10;;;;;;;7.77;5.67;;;12.60;99.90;;;;;;4176685;28;20257;-77
2023/05/13 02:26:12;;;;;;;7.50;5.30;;;12.60;99.90;;;;;;4179313;28;20266;-77
2023/05/13 02:28:15;;;;;;;7.27;5.30;;;12.50;99.90;;;;;;4170111;28;20211;-78
2023/05/13 02:30:17;;;;;;;7.53;5.23;;;12.50;99.90;;;;;;4168898;28;20297;-78
2023/05/13 02:32:19;;;;;;;7.67;5.30;;;12.50;99.90;;;;;;4168633;28;20219;-78
2023/05/13 02:34:21;;;;;;;9.53;5.70;;;12.50;99.90;;;;;;4167875;28;20225;-77
2023/05/13 02:36:23;;;;;;;6.23;4.80;;;12.50;99.90;;;;;;4163986;28;20218;-77
2023/05/13 02:38:25;;;;;;;6.83;5.13;;;12.40;99.90;;;;;;4167055;28;20202;-78
2023/05/13 02:40:27;;;;;;;7.33;5.40;;;12.40;99.90;;;;;;4166934;28;20214;-77
2023/05/13 02:42:29;;;;;;;8.17;5.53;;;12.40;99.90;;;;;;4164150;28;20228;-77
2023/05/13 02:44:32;;;;;;;6.93;5.00;;;12.30;99.90;;;;;;4173767;28;20241;-77
2023/05/13 02:46:34;;;;;;;6.27;4.90;;;12.30;99.90;;;;;;4172394;28;20965;-77
2023/05/13 02:48:36;;;;;;;6.73;4.93;;;12.30;99.90;;;;;;4175217;28;20656;-78
2023/05/13 02:50:39;;;;;;;8.13;4.57;;;12.20;99.90;;;;;;4173226;28;20220;-77
2023/05/13 02:52:41;;;;;;;6.47;4.70;;;12.20;99.90;;;;;;4171338;28;20218;-77
2023/05/13 02:54:43;;;;;;;6.40;4.63;;;12.20;99.90;;;;;;4172628;28;20199;-77
2023/05/13 02:56:45;;;;;;;5.80;4.80;;;12.20;99.90;;;;;;4171642;28;20223;-77
2023/05/13 02:58:47;;;;;;;7.07;4.60;;;12.10;99.90;;;;;;4170244;28;20210;-77
2023/05/13 03:00:50;;;;;;;6.87;4.93;;;12.10;99.90;;;;;;4170583;28;20707;-77
2023/05/13 03:02:52;;;;;;;7.20;5.30;;;12.10;99.90;;;;;;4173143;28;20271;-77
2023/05/13 03:04:55;;;;;;;7.00;4.90;;;12.00;99.90;;;;;;4175391;28;20259;-78
2023/05/13 03:06:57;;;;;;;7.33;5.10;;;12.00;99.90;;;;;;4168306;28;20248;-77
2023/05/13 03:08:59;;;;;;;6.83;4.90;;;12.00;99.90;;;;;;4169551;28;20206;-77
2023/05/13 03:11:01;;;;;;;6.90;5.10;;;12.00;99.90;;;;;;4178331;28;20206;-77
2023/05/13 03:13:03;;;;;;;6.53;4.57;;;12.00;99.90;;;;;;4172476;28;20214;-77
2023/05/13 03:15:06;;;;;;;8.20;5.43;;;11.90;99.90;;;;;;4171794;28;20272;-77
2023/05/13 03:17:09;;;;;;;6.77;4.77;;;11.90;99.90;;;;;;4169152;28;20229;-77
2023/05/13 03:19:11;;;;;;;7.63;5.40;;;12.00;99.90;;;;;;4166158;28;20210;-77
2023/05/13 03:21:13;;;;;;;6.77;4.83;;;11.90;99.90;;;;;;4167970;28;20222;-77
2023/05/13 03:23:15;;;;;;;6.23;4.90;;;11.90;99.90;;;;;;4171968;28;20214;-77
2023/05/13 03:25:17;;;;;;;7.47;4.97;;;11.90;99.90;;;;;;4172509;28;20214;-77
2023/05/13 03:27:19;;;;;;;6.03;4.73;;;11.90;99.90;;;;;;4167809;28;20318;-78
2023/05/13 03:29:21;;;;;;;6.87;5.10;;;11.80;99.90;;;;;;4172761;28;20216;-77
2023/05/13 03:31:23;;;;;;;6.50;4.93;;;11.80;99.90;;;;;;4174788;28;20207;-77
2023/05/13 03:33:28;;;;;;;6.63;5.00;;;11.80;99.90;;;;;;4168481;28;20217;-78
2023/05/13 03:35:30;;;;;;;8.50;5.30;;;11.70;99.90;;;;;;4171304;28;20199;-78
2023/05/13 03:37:32;;;;;;;7.10;5.17;;;11.70;99.90;;;;;;4168253;28;20605;-77
2023/05/13 03:39:35;;;;;;;9.87;5.20;;;11.70;99.90;;;;;;4169759;28;20782;-77
2023/05/13 03:41:37;;;;;;;7.97;5.40;;;11.70;99.90;;;;;;4166059;28;20232;-78
2023/05/13 03:43:39;;;;;;;10.47;5.40;;;11.70;99.90;;;;;;4166424;28;20986;-77
2023/05/13 03:45:41;;;;;;;7.33;4.90;;;11.60;99.90;;;;;;4172358;28;20259;-77
2023/05/13 03:47:43;;;;;;;8.33;5.20;;;11.60;99.90;;;;;;4168563;28;20268;-77
2023/05/13 03:49:47;;;;;;;6.30;4.90;;;11.60;99.90;;;;;;4172143;28;20218;-78
2023/05/13 03:51:49;;;;;;;6.67;4.80;;;11.60;99.90;;;;;;4163705;28;20608;-77
2023/05/13 03:53:51;;;;;;;7.20;5.27;;;11.60;99.90;;;;;;4172624;28;20221;-77
2023/05/13 03:55:53;;;;;;;6.97;5.30;;;11.50;99.90;;;;;;4170211;28;20287;-78
2023/05/13 03:57:55;;;;;;;6.87;5.37;;;11.50;99.90;;;;;;4172607;28;20679;-77
2023/05/13 03:59:57;;;;;;;8.60;5.23;;;11.50;99.90;;;;;;4172130;28;20220;-77
2023/05/13 04:01:59;;;;;;;7.90;5.27;;;11.50;99.90;;;;;;4167850;28;20233;-77
2023/05/13 04:04:01;;;;;;;6.13;5.13;;;11.50;99.90;;;;;;4167039;28;20626;-77
2023/05/13 04:06:05;;;;;;;8.20;5.37;;;11.50;99.90;;;;;;4168477;28;20241;-77
2023/05/13 04:08:07;;;;;;;8.40;5.07;;;11.40;99.90;;;;;;4170067;28;20209;-77
2023/05/13 04:10:09;;;;;;;7.33;5.27;;;11.40;99.90;;;;;;4168449;28;20204;-77
2023/05/13 04:12:11;;;;;;;8.30;5.80;;;11.40;99.90;;;;;;4168852;28;20725;-77
2023/05/13 04:14:13;;;;;;;6.80;5.07;;;11.40;99.90;;;;;;4168487;28;20201;-77
2023/05/13 04:16:16;;;;;;;7.50;5.60;;;11.40;99.90;;;;;;4171968;28;20597;-77
2023/05/13 04:18:18;;;;;;;7.40;5.07;;;11.40;99.90;;;;;;4169785;28;20265;-78
2023/05/13 04:20:20;;;;;;;7.30;4.80;;;11.40;99.90;;;;;;4170938;28;20268;-77
2023/05/13 04:22:24;;;;;;;7.67;5.50;;;11.30;99.90;;;;;;4167579;28;20256;-77
2023/05/13 04:24:26;;;;;;;8.10;4.73;;;11.40;99.90;;;;;;4168132;28;20633;-77
2023/05/13 04:26:28;;;;;;;7.20;5.00;;;11.40;99.90;;;;;;4168187;28;20228;-77
2023/05/13 04:28:31;;;;;;;6.63;4.40;;;11.40;99.90;;;;;;4169593;28;20721;-77
2023/05/13 04:30:33;;;;;;;5.37;4.53;;;11.40;99.90;;;;;;4168590;28;20287;-77
2023/05/13 04:32:35;;;;;;;6.63;5.20;;;11.40;99.90;;;;;;4166084;28;20284;-78
2023/05/13 04:34:37;;;;;;;7.77;5.00;;;11.40;99.90;;;;;;4171778;28;20270;-77
2023/05/13 04:36:39;;;;;;;7.60;5.53;;;11.40;99.90;;;;;;4170627;28;20316;-78
2023/05/13 04:38:42;;;;;;;8.90;5.77;;;11.50;99.90;;;;;;4169814;28;20216;-78
2023/05/13 04:40:46;;;;;;;9.43;5.60;;;11.50;99.90;;;;;;4171525;28;20214;-77
2023/05/13 04:42:53;;;;;;;8.70;5.80;;;11.40;99.90;;;;;;4168721;28;20234;-77
2023/05/13 04:44:55;;;;;;;7.17;5.63;;;11.40;99.90;;;;;;4175915;28;20214;-77
2023/05/13 04:46:57;;;;;;;9.47;5.30;;;11.40;99.90;;;;;;4169878;28;20600;-78
2023/05/13 04:48:59;;;;;;;8.30;5.67;;;11.40;99.90;;;;;;4166885;28;20718;-77
2023/05/13 04:51:01;;;;;;;8.00;4.97;;;11.40;99.90;;;;;;4169012;28;20206;-78
2023/05/13 04:53:03;;;;;;;7.93;5.70;;;11.40;99.90;;;;;;4177233;28;20206;-77
2023/05/13 04:55:07;;;;;;;7.53;5.00;;;11.40;99.90;;;;;;4174199;28;20259;-76
2023/05/13 04:57:09;;;;;;;6.23;4.90;;;11.40;99.90;;;;;;4173151;28;20944;-77
2023/05/13 04:59:11;;;;;;;8.70;5.73;;;11.40;99.90;;;;;;4170032;28;20205;-77
2023/05/13 05:01:13;;;;;;;7.20;5.07;;;11.50;99.90;;;;;;4169503;28;20275;-77
2023/05/13 05:03:15;;;;;;;7.03;5.23;;;11.50;99.90;;;;;;4170485;28;20209;-77
2023/05/13 05:05:17;;;;;;;7.80;5.47;;;11.50;99.90;;;;;;4172748;28;20217;-77
2023/05/13 05:07:19;;;;;;;8.93;5.57;;;11.60;99.90;;;;;;4173258;28;20268;-77
2023/05/13 05:09:21;;;;;;;9.27;5.40;;;11.60;99.90;;;;;;4172375;28;20214;-77
2023/05/13 05:11:24;;;;;;;7.13;4.93;;;11.60;99.90;;;;;;4172304;28;20213;-77
2023/05/13 05:13:26;;;;;;;7.07;5.50;;;11.60;99.90;;;;;;4168193;28;20268;-77
2023/05/13 05:15:28;;;;;;;6.53;5.23;;;11.60;99.90;;;;;;4168015;28;20210;-77
2023/05/13 05:17:31;;;;;;;7.23;5.33;;;11.60;99.90;;;;;;4165102;28;20217;-77
2023/05/13 05:19:33;;;;;;;6.17;4.73;;;11.60;99.90;;;;;;4172540;28;20680;-77
2023/05/13 05:21:35;;;;;;;6.87;4.83;;;11.60;99.90;;;;;;4166493;28;20210;-77
2023/05/13 05:23:37;;;;;;;7.20;5.30;;;11.60;99.90;;;;;;4179230;28;20711;-77
2023/05/13 05:25:39;;;;;;;7.63;5.10;;;11.60;99.90;;;;;;4171892;28;20259;-76
2023/05/13 05:27:42;;;;;;;7.30;4.90;;;11.60;99.90;;;;;;4170258;28;20210;-76
2023/05/13 05:29:44;;;;;;;8.00;5.20;;;11.70;99.90;;;;;;4171487;28;20264;-77
2023/05/13 05:31:46;;;;;;;7.23;4.67;;;11.60;99.90;;;;;;4173105;28;20206;-77
2023/05/13 05:33:48;;;;;;;7.93;5.13;;;11.60;99.90;;;;;;4175646;28;20213;-77
2023/05/13 05:35:50;;;;;;;8.00;5.37;;;11.60;99.90;;;;;;4176718;28;20273;-77
2023/05/13 05:37:52;;;;;;;7.23;5.17;;;11.70;99.90;;;;;;4175044;28;20206;-77
2023/05/13 05:39:54;;;;;;;7.20;5.27;;;11.70;99.90;;;;;;4171142;28;20214;-77
2023/05/13 05:41:56;;;;;;;7.70;5.37;;;11.70;99.90;;;;;;4171508;28;20797;-77
2023/05/13 05:43:59;;;;;;;7.10;5.20;;;11.70;99.90;;;;;;4172542;28;20607;-77
2023/05/13 05:46:03;;;;;;;7.57;5.17;;;11.70;99.90;;;;;;4174759;28;20233;-77
2023/05/13 05:48:06;;;;;;;7.60;5.40;;;11.80;99.90;;;;;;4174366;28;20214;-77
2023/05/13 05:50:09;;;;;;;7.03;5.07;;;11.80;99.90;;;;;;4180820;28;20218;-77
2023/05/13 05:52:12;;;;;;;7.20;5.10;;;11.80;99.90;;;;;;4174454;28;20202;-77
2023/05/13 05:54:14;;;;;;;7.90;5.57;;;11.80;99.90;;;;;;4169384;28;20217;-77
2023/05/13 05:56:16;;;;;;;7.87;5.50;;;11.90;99.90;;;;;;4169899;28;20296;-77
2023/05/13 05:58:18;;;;;;;8.00;5.40;;;11.80;99.90;;;;;;4171410;28;20206;-77
2023/05/13 06:00:21;;;;;;;8.87;5.50;;;11.90;99.90;;;;;;4171580;28;20214;-77
2023/05/13 06:02:23;;;;;;;7.03;5.10;;;11.90;99.90;;;;;;4166566;28;20636;-77
2023/05/13 06:04:25;;;;;;;6.57;5.17;;;11.90;99.90;;;;;;4168349;28;20206;-76
2023/05/13 06:06:27;;;;;;;7.87;5.47;;;12.00;99.90;;;;;;4171820;28;20237;-77
2023/05/13 06:08:29;;;;;;;7.20;5.50;;;12.00;99.90;;;;;;4174159;28;20269;-77
2023/05/13 06:10:31;;;;;;;7.63;5.50;;;12.00;99.90;;;;;;4173005;28;20210;-77
2023/05/13 06:12:34;;;;;;;7.70;5.53;;;12.10;99.90;;;;;;4204331;28;20229;-77
2023/05/13 06:14:36;;;;;;;8.33;5.37;;;12.10;99.90;;;;;;4173658;28;20221;-77
2023/05/13 06:16:39;;;;;;;8.40;5.20;;;12.10;99.90;;;;;;4174217;28;20376;-77
2023/05/13 06:18:41;;;;;;;9.83;6.20;;;12.20;99.90;;;;;;4168550;28;20210;-77
2023/05/13 06:20:43;;;;;;;8.33;5.83;;;12.20;99.90;;;;;;4170957;28;20218;-77
2023/05/13 06:22:46;;;;;;;9.00;6.40;;;12.20;99.90;;;;;;4170653;28;20324;-77
2023/05/13 06:24:48;;;;;;;7.43;5.70;;;12.30;99.90;;;;;;4169621;28;20198;-77
2023/05/13 06:26:51;;;;;;;8.13;5.03;;;12.30;99.90;;;;;;4171802;28;20269;-77
2023/05/13 06:28:53;;;;;;;7.03;5.10;;;12.30;99.90;;;;;;4175139;28;20297;-77
2023/05/13 06:30:55;;;;;;;6.63;5.00;;;12.40;99.90;;;;;;4167701;28;20820;-77
2023/05/13 06:32:58;;;;;;;7.70;5.17;;;12.40;99.90;;;;;;4175220;28;20263;-77
2023/05/13 06:35:00;;;;;;;6.87;4.97;;;12.40;99.90;;;;;;4170381;28;20218;-77
2023/05/13 06:37:03;;;;;;;5.20;4.07;;;12.40;99.90;;;;;;4171540;28;20280;-77
2023/05/13 06:39:05;;;;;;;6.47;4.67;;;12.40;99.90;;;;;;4167214;28;20211;-77
2023/05/13 06:41:07;;;;;;;5.77;4.30;;;12.50;99.90;;;;;;4166833;28;20218;-77
2023/05/13 06:43:09;;;;;;;7.03;4.57;;;12.50;99.90;;;;;;4175601;28;20276;-77
2023/05/13 06:45:11;;;;;;;6.67;5.07;;;12.50;99.90;;;;;;4169354;28;20621;-77
2023/05/13 06:47:15;;;;;;;5.83;4.30;;;12.60;99.90;;;;;;4168712;28;20215;-77
2023/05/13 06:49:18;;;;;;;5.83;4.27;;;12.60;99.90;;;;;;4173740;28;20242;-78
2023/05/13 06:51:20;;;;;;;5.10;4.37;;;12.60;99.90;;;;;;4169826;28;20210;-77
2023/05/13 06:53:22;;;;;;;6.43;4.63;;;12.70;99.90;;;;;;4172380;28;20285;-77
2023/05/13 06:55:26;;;;;;;5.47;4.30;;;12.70;99.90;;;;;;4173322;28;20195;-77
2023/05/13 06:57:28;;;;;;;7.27;4.33;;;12.80;99.90;;;;;;4170162;28;20604;-77
2023/05/13 06:59:30;;;;;;;5.93;4.30;;;12.80;99.90;;;;;;4170657;28;20211;-76
2023/05/13 07:01:32;;;;;;;5.13;3.90;;;12.80;99.90;;;;;;4174047;28;20713;-76
2023/05/13 07:03:34;;;;;;;8.33;4.17;;;12.90;99.90;;;;;;4169723;28;20227;-75
2023/05/13 07:05:37;;;;;;;5.13;4.23;;;12.90;99.90;;;;;;4173277;28;20604;-75
2023/05/13 07:07:39;;;;;;;5.83;4.23;;;13.00;99.90;;;;;;4173789;28;20782;-75
2023/05/13 07:09:41;;;;;;;5.30;4.10;;;13.00;99.90;;;;;;4170989;28;20224;-78
2023/05/13 07:11:43;;;;;;;5.90;4.20;;;13.00;99.90;;;;;;4178886;28;20273;-80
2023/05/13 07:13:46;;;;;;;5.47;4.40;;;13.00;99.90;;;;;;4173415;28;20203;-77
2023/05/13 07:15:47;;;;;;;4.43;3.60;;;13.10;99.90;;;;;;4170980;28;20226;-77
2023/05/13 07:17:49;;;;;;;4.57;3.47;;;13.20;99.90;;;;;;4172934;28;20681;-77
2023/05/13 07:19:54;;;;;;;4.13;3.13;;;13.20;99.90;;;;;;4173508;28;20219;-78
2023/05/13 07:21:57;;;;;;;4.77;3.40;;;13.30;99.90;;;;;;4171745;28;20244;-78
2023/05/13 07:24:01;;;;;;;4.13;3.07;;;13.30;99.90;;;;;;4172341;28;20230;-78
2023/05/13 07:26:04;;;;;;;5.53;3.70;;;13.40;99.90;;;;;;4173426;28;20582;-78
2023/05/13 07:28:06;;;;;;;5.37;3.33;;;13.40;99.90;;;;;;4172659;28;20204;-79
2023/05/13 07:30:09;;;;;;;4.57;3.47;;;13.50;99.90;;;;;;4169525;28;20413;-76
2023/05/13 07:32:11;;;;;;;6.63;4.23;;;13.50;99.90;;;;;;4173317;28;20677;-75
2023/05/13 07:34:13;;;;;;;6.27;4.07;;;13.60;99.90;;;;;;4173356;28;20212;-76
2023/05/13 07:36:15;;;;;;;6.90;4.57;;;13.70;99.90;;;;;;4172130;28;20593;-79
2023/05/13 07:38:18;;;;;;;5.57;3.83;;;13.80;99.90;;;;;;4167946;28;20222;-76
2023/05/13 07:40:20;;;;;;;5.10;3.70;;;13.90;99.90;;;;;;4171030;28;20747;-77
2023/05/13 07:42:22;;;;;;;4.23;3.53;;;13.90;99.90;;;;;;4171706;28;20207;-78
2023/05/13 07:44:25;;;;;;;5.20;3.70;;;13.90;99.90;;;;;;4167001;28;20203;-76
2023/05/13 07:46:27;;;;;;;5.07;3.57;;;14.00;99.90;;;;;;4205410;28;20330;-76
2023/05/13 07:48:30;;;;;;;4.60;3.23;;;14.00;99.90;;;;;;4172342;28;20223;-79
2023/05/13 07:50:32;;;;;;;4.20;3.33;;;14.10;99.90;;;;;;4178085;28;20212;-76
2023/05/13 07:52:36;;;;;;;4.53;3.00;;;14.20;99.90;;;;;;4169745;28;20215;-77
2023/05/13 07:54:40;;;;;;;3.70;3.10;;;14.20;99.90;;;;;;4170820;28;20195;-78
2023/05/13 07:56:45;;;;;;;4.63;2.90;;;14.40;99.90;;;;;;4174803;28;20224;-77
2023/05/13 07:58:49;;;;;;;4.73;3.03;;;14.40;99.90;;;;;;4171477;28;20293;-78
2023/05/13 08:00:51;;;;;;;4.60;3.07;;;14.50;99.90;;;;;;4174331;28;20581;-77
2023/05/13 08:02:53;;;;;;;4.93;2.73;;;14.50;99.90;;;;;;4172771;28;20244;-78
2023/05/13 08:04:55;;;;;;;4.10;2.70;;;14.60;99.90;;;;;;4175959;28;20290;-78
2023/05/13 08:06:57;;;;;;;3.57;2.70;;;14.70;99.90;;;;;;4176079;28;20331;-78
2023/05/13 08:09:00;;;;;;;4.20;2.87;;;14.70;99.90;;;;;;4168932;28;20203;-76
2023/05/13 08:11:03;;;;;;;4.87;2.90;;;14.80;99.90;;;;;;4166131;28;20573;-76
2023/05/13 08:13:05;;;;;;;3.93;3.10;;;14.90;99.90;;;;;;4170925;28;20202;-77
2023/05/13 08:15:08;;;;;;;6.53;3.40;;;14.90;99.90;;;;;;4174679;28;20263;-77
2023/05/13 08:17:10;;;;;;;6.47;3.57;;;15.00;99.90;;;;;;4170774;28;20282;-77
2023/05/13 08:19:14;;;;;;;4.53;3.47;;;15.00;99.90;;;;;;4173532;28;20287;-77
2023/05/13 08:21:16;;;;;;;5.17;3.30;;;15.00;99.90;;;;;;4174317;28;20218;-78
2023/05/13 08:23:17;;;;;;;3.40;2.80;;;15.10;99.90;;;;;;4173320;28;20239;-77
2023/05/13 08:25:20;;;;;;;3.47;3.07;;;15.20;99.90;;;;;;4171923;28;20585;-76
2023/05/13 08:27:24;;;;;;;3.63;2.83;;;15.20;99.90;;;;;;4173419;28;20292;-76
2023/05/13 08:29:26;;;;;;;3.93;2.90;;;15.20;99.90;;;;;;4170776;28;20267;-76
2023/05/13 08:31:28;;;;;;;4.97;3.13;;;15.30;99.90;;;;;;4167148;28;20692;-77
2023/05/13 08:33:30;;;;;;;3.37;2.77;;;15.40;99.90;;;;;;4170691;28;20229;-77
2023/05/13 08:35:32;;;;;;;3.50;2.50;;;15.40;99.90;;;;;;4175022;28;20719;-77
2023/05/13 08:37:34;;;;;;;5.47;2.73;;;15.50;99.90;;;;;;4172276;28;20206;-77
2023/05/13 08:39:36;;;;;;;3.20;2.70;;;15.50;99.90;;;;;;4173383;28;20202;-77
2023/05/13 08:41:38;;;;;;;6.17;2.70;;;15.60;99.90;;;;;;4177446;28;20247;-77
2023/05/13 08:43:43;;;;;;;4.70;3.60;;;15.70;99.90;;;;;;4172524;28;20226;-77
2023/05/13 08:45:47;;;;;;;4.87;3.20;;;15.70;99.90;;;;;;4171176;28;20237;-78
2023/05/13 08:47:52;;;;;;;3.63;3.10;;;15.80;99.90;;;;;;4175081;28;20207;-78
2023/05/13 08:49:55;;;;;;;4.57;3.43;;;15.90;99.90;;;;;;4175954;28;20211;-80
2023/05/13 08:51:57;;;;;;;7.03;3.00;;;15.90;99.90;;;;;;4175081;28;20226;-79
2023/05/13 08:54:01;;;;;;;4.17;3.20;;;16.00;99.90;;;;;;4175487;28;20272;-79
2023/05/13 08:56:05;;;;;;;3.67;2.97;;;16.10;99.90;;;;;;4177571;28;20734;-79
2023/05/13 08:58:07;;;;;;;4.30;3.03;;;16.10;99.90;;;;;;4184749;28;20209;-79
2023/05/13 09:00:13;;;;;;;4.77;3.53;;;16.20;99.90;;;;;;4185033;28;20214;-79
2023/05/13 09:02:15;;;;;;;4.87;3.20;;;16.30;99.90;;;;;;4177725;28;20290;-79
2023/05/13 09:04:20;;;;;;;4.63;3.47;;;16.30;99.90;;;;;;4177182;28;20227;-79
2023/05/13 09:06:22;;;;;;;5.30;3.10;;;16.40;99.90;;;;;;4180214;28;20235;-80
2023/05/13 09:08:24;;;;;;;5.40;3.20;;;16.50;99.90;;;;;;4180458;28;20215;-79
2023/05/13 09:10:26;;;;;;;3.97;3.27;;;16.60;99.90;;;;;;4176798;28;20210;-79
2023/05/13 09:12:48;;;;;;;4.37;3.40;;;16.60;99.90;;;;;;4181836;28;20207;-79
2023/05/13 09:14:50;;;;;;;4.77;3.50;;;16.80;99.90;;;;;;4183963;28;20202;-79
2023/05/13 09:16:56;;;;;;;4.83;3.33;;;16.90;99.90;;;;;;4186049;28;20219;-79
2023/05/13 09:18:59;;;;;;;5.20;3.43;;;16.90;99.90;;;;;;4184604;28;20208;-79
2023/05/13 09:21:22;;;;;;;5.97;3.70;;;17.00;99.90;;;;;;4187519;28;20674;-81
2023/05/13 09:23:25;;;;;;;4.97;3.50;;;17.10;99.90;;;;;;4192223;28;20691;-80
2023/05/13 09:25:28;;;;;;;4.93;3.27;;;17.20;99.90;;;;;;4186260;28;20234;-81
2023/05/13 09:27:38;;;;;;;4.40;3.30;;;17.30;99.90;;;;;;4186825;28;20207;-80
2023/05/13 09:29:39;;;;;;;5.07;3.00;;;17.50;99.90;;;;;;4175587;28;20234;-78
2023/05/13 09:31:42;;;;;;;4.13;2.90;;;17.60;99.90;;;;;;4177758;28;20284;-79
2023/05/13 09:33:52;;;;;;;4.50;2.97;;;17.60;99.90;;;;;;4181033;28;20723;-78
2023/05/13 09:35:54;;;;;;;4.70;3.17;;;17.70;99.90;;;;;;4176806;28;20229;-78
2023/05/13 09:37:57;;;;;;;6.27;4.13;;;17.80;99.90;;;;;;4173894;28;20266;-79
2023/05/13 09:40:00;;;;;;;6.43;4.03;;;17.90;99.90;;;;;;4173974;28;20214;-78
2023/05/13 09:42:02;;;;;;;4.97;3.53;;;18.00;99.90;;;;;;4172550;28;20218;-78
2023/05/13 09:44:04;;;;;;;5.17;3.87;;;18.00;99.90;;;;;;4173333;28;20226;-78
2023/05/13 09:46:09;;;;;;;5.17;3.40;;;18.10;99.90;;;;;;4173682;28;20231;-79
2023/05/13 09:48:11;;;;;;;4.73;3.27;;;18.20;99.90;;;;;;4170152;28;20283;-79
2023/05/13 09:50:14;;;;;;;4.63;2.97;;;18.30;99.90;;;;;;4173201;28;20263;-79
2023/05/13 09:52:17;;;;;;;4.57;3.20;;;18.40;99.90;;;;;;4174989;28;20224;-79
2023/05/13 09:54:19;;;;;;;5.80;3.40;;;18.60;99.90;;;;;;4173920;28;20266;-78
2023/05/13 09:56:23;;;;;;;6.90;3.20;;;18.70;99.90;;;;;;4171984;28;20285;-78
2023/05/13 09:58:27;;;;;;;4.90;3.40;;;18.80;99.90;;;;;;4176273;28;20201;-79
2023/05/13 10:00:30;;;;;;;5.73;3.40;;;18.90;99.90;;;;;;4172864;28;20206;-78
2023/05/13 10:02:33;;;;;;;4.17;3.27;;;19.10;99.90;;;;;;4177213;28;20264;-78
2023/05/13 10:04:35;;;;;;;6.40;3.87;;;19.20;99.90;;;;;;4173364;28;20274;-78
2023/05/13 10:06:39;;;;;;;4.77;2.70;;;19.30;99.90;;;;;;4175031;28;20233;-78
2023/05/13 10:08:42;;;;;;;4.53;2.90;;;19.40;99.90;;;;;;4168441;28;20333;-77
2023/05/13 10:10:45;;;;;;;3.00;2.50;;;19.50;99.90;;;;;;4172075;28;20214;-77
2023/05/13 10:12:49;;;;;;;4.37;2.90;;;19.60;99.90;;;;;;4174678;28;20267;-78
2023/05/13 10:14:52;;;;;;;3.77;3.00;;;19.70;99.90;;;;;;4175410;28;20206;-78
2023/05/13 10:16:56;;;;;;;3.43;2.77;;;19.70;99.90;;;;;;4177925;28;20711;-78
2023/05/13 10:18:58;;;;;;;6.20;3.17;;;19.80;99.90;;;;;;4173427;28;20214;-78
2023/05/13 10:21:01;;;;;;;4.10;2.93;;;19.80;99.90;;;;;;4170600;28;20210;-77
2023/05/13 10:23:05;;;;;;;3.70;2.80;;;19.90;99.90;;;;;;4181625;28;20202;-78
2023/05/13 10:25:07;;;;;;;7.07;3.80;;;19.90;99.90;;;;;;4181686;28;20226;-77
2023/05/13 10:27:11;;;;;;;5.10;3.80;;;20.00;99.90;;;;;;4183726;28;20233;-78
2023/05/13 10:29:13;;;;;;;9.30;3.93;;;20.10;99.90;;;;;;4174537;28;20350;-78
2023/05/13 10:31:16;;;;;;;5.10;3.30;;;20.20;99.90;;;;;;4180880;28;20288;-77
2023/05/13 10:33:18;;;;;;;6.50;3.07;;;20.30;99.90;;;;;;4180861;28;20232;-77
2023/05/13 10:35:22;;;;;;;6.70;3.13;;;20.40;99.90;;;;;;4186259;28;20202;-78
2023/05/13 10:37:46;;;;;;;3.43;2.77;;;20.50;99.90;;;;;;4185480;28;20248;-78